Home > Products > Valid Products > TAF

000
FTUS44 KSJT 101730
TAFJCT
TAF
KJCT 101730Z 1018/1118 22010G16KT P6SM SKC
     FM110100 VRB02KT P6SM SKC=



000
FTUS44 KSJT 101730
TAFABI
TAF
KABI 101730Z 1018/1118 24014G21KT P6SM SKC
     FM110000 22011KT P6SM SKC
     FM111400 33010KT P6SM SKC=



000
FTUS44 KSJT 101730
TAFSJT
TAF
KSJT 101730Z 1018/1118 22011G17KT P6SM SKC
     FM102300 22008KT P6SM SKC=



000
FTUS44 KSJT 101125
TAFSJT
TAF
KSJT 101125Z 1012/1112 24004KT P6SM SKC
     FM101700 23009KT P6SM SKC
     FM101900 23011G17KT P6SM SKC
     FM110000 21008KT P6SM SKC=



000
FTUS44 KSJT 101125
TAFABI
TAF
KABI 101125Z 1012/1112 18005KT P6SM SKC
     FM101600 23010KT P6SM SKC
     FM101800 24014G21KT P6SM SKC
     FM110000 20010KT P6SM SKC=



000
FTUS44 KSJT 101125
TAFJCT
TAF
KJCT 101125Z 1012/1112 VRB03KT P6SM SKC
     FM101800 22010G16KT P6SM SKC
     FM110100 21004KT P6SM SKC=



000
FTUS44 KSJT 101125
TAFJCT
TAF
KJCT 101125Z 1012/1112 VRB03KT P6SM SKC
     FM101800 22010G16KT P6SM SKC
     FM110100 21004KT P6SM SKC=



000
FTUS44 KSJT 101125
TAFSJT
TAF
KSJT 101125Z 1012/1112 24004KT P6SM SKC
     FM101700 23009KT P6SM SKC
     FM101900 23011G17KT P6SM SKC
     FM110000 21008KT P6SM SKC=



000
FTUS44 KSJT 101125
TAFABI
TAF
KABI 101125Z 1012/1112 18005KT P6SM SKC
     FM101600 23010KT P6SM SKC
     FM101800 24014G21KT P6SM SKC
     FM110000 20010KT P6SM SKC=



000
FTUS44 KSJT 100520
TAFABI
TAF
KABI 100520Z 1006/1106 VRB04KT P6SM SKC
     FM101600 24010KT P6SM SKC
     FM101900 24013G20KT P6SM SKC
     FM110000 20010KT P6SM SKC=



000
FTUS44 KSJT 100520
TAFSJT
TAF
KSJT 100520Z 1006/1106 24004KT P6SM SKC
     FM101700 23009KT P6SM SKC
     FM101900 23011G17KT P6SM SKC
     FM110000 21008KT P6SM SKC=



000
FTUS44 KSJT 100520
TAFJCT
TAF
KJCT 100520Z 1006/1106 VRB03KT P6SM SKC
     FM101800 22010G16KT P6SM SKC
     FM110100 21004KT P6SM SKC=



000
FTUS44 KSJT 092345
TAFABI
TAF
KABI 092345Z 1000/1024 32011KT P6SM SKC
     FM100100 VRB04KT P6SM SKC
     FM101700 24011KT P6SM SKC=



000
FTUS44 KSJT 092345
TAFSJT
TAF
KSJT 092345Z 1000/1024 30008KT P6SM SKC
     FM100100 VRB04KT P6SM SKC
     FM101700 23010KT P6SM SKC=



000
FTUS44 KSJT 092345
TAFJCT
TAF
KJCT 092345Z 1000/1024 34008KT P6SM SKC
     FM100100 VRB05KT P6SM SKC
     FM101700 22008KT P6SM SKC=



000
FTUS44 KSJT 092121 AAB
TAFABI
TAF AMD
KABI 092121Z 0921/1018 32013G20KT P6SM SKC
     FM100100 VRB04KT P6SM SKC
     FM101700 24011KT P6SM SKC=



000
FTUS44 KSJT 092121 AAB
TAFABI
TAF AMD
KABI 092121Z 0921/1018 32013G20KT P6SM SKC
     FM100100 VRB04KT P6SM SKC
     FM101700 24011KT P6SM SKC=



000
FTUS44 KSJT 092000 AAA
TAFABI
TAF AMD
KABI 092000Z 0920/1018 33014G23KT P6SM SKC
     FM100100 VRB04KT P6SM SKC
     FM101700 24011KT P6SM SKC=



000
FTUS44 KSJT 092000 AAA
TAFABI
TAF AMD
KABI 092000Z 0920/1018 33014G23KT P6SM SKC
     FM100100 VRB04KT P6SM SKC
     FM101700 24011KT P6SM SKC=



000
FTUS44 KSJT 091722
TAFJCT
TAF
KJCT 091722Z 0918/1018 30008KT P6SM SKC
     FM100000 VRB04KT P6SM SKC
     FM101700 22008KT P6SM SKC=



000
FTUS44 KSJT 091722
TAFABI
TAF
KABI 091722Z 0918/1018 31012G19KT P6SM SKC
     FM100100 VRB04KT P6SM SKC
     FM101700 24011KT P6SM SKC=



000
FTUS44 KSJT 091722
TAFSJT
TAF
KSJT 091722Z 0918/1018 30011KT P6SM SKC
     FM100100 VRB04KT P6SM SKC
     FM101700 23010KT P6SM SKC=



000
FTUS44 KSJT 091722
TAFABI
TAF
KABI 091722Z 0918/1018 31012G19KT P6SM SKC
     FM100100 VRB04KT P6SM SKC
     FM101700 24011KT P6SM SKC=



000
FTUS44 KSJT 091722
TAFJCT
TAF
KJCT 091722Z 0918/1018 30008KT P6SM SKC
     FM100000 VRB04KT P6SM SKC
     FM101700 22008KT P6SM SKC=



000
FTUS44 KSJT 091722
TAFSJT
TAF
KSJT 091722Z 0918/1018 30011KT P6SM SKC
     FM100100 VRB04KT P6SM SKC
     FM101700 23010KT P6SM SKC=



000
FTUS44 KSJT 091658 AAA
TAFABI
TAF AMD
KABI 091658Z 0917/1012 31012KT P6SM SKC
     FM100000 VRB06KT P6SM FEW250=



000
FTUS44 KSJT 091658 AAA
TAFABI
TAF AMD
KABI 091658Z 0917/1012 31012KT P6SM SKC
     FM100000 VRB06KT P6SM FEW250=



000
FTUS44 KSJT 091125
TAFJCT
TAF
KJCT 091125Z 0912/1012 27004KT P6SM FEW250
     FM091800 30008KT P6SM FEW250
     FM100000 22004KT P6SM FEW250=



000
FTUS44 KSJT 091125
TAFSJT
TAF
KSJT 091125Z 0912/1012 27005KT P6SM SKC
     FM091800 29008KT P6SM SKC
     FM100100 22005KT P6SM FEW250=



000
FTUS44 KSJT 091125
TAFABI
TAF
KABI 091125Z 0912/1012 27005KT P6SM SKC
     FM091700 31011KT P6SM SKC
     FM100000 VRB06KT P6SM FEW250=



000
FTUS44 KSJT 090524
TAFJCT
TAF
KJCT 090524Z 0906/1006 VRB03KT P6SM FEW250
     FM091800 30008KT P6SM FEW250
     FM100000 22004KT P6SM FEW250=



000
FTUS44 KSJT 090524
TAFSJT
TAF
KSJT 090524Z 0906/1006 28005KT P6SM SKC
     FM091800 29008KT P6SM SKC
     FM100100 22005KT P6SM FEW250=



000
FTUS44 KSJT 090524
TAFABI
TAF
KABI 090524Z 0906/1006 30005KT P6SM SKC
     FM091700 31011KT P6SM SKC
     FM100000 VRB06KT P6SM FEW250=



000
FTUS44 KSJT 082326
TAFABI
TAF
KABI 082326Z 0900/0924 33010G17KT P6SM FEW250
     FM090100 VRB05KT P6SM SKC
     FM091700 31011KT P6SM SKC=



000
FTUS44 KSJT 082326
TAFJCT
TAF
KJCT 082326Z 0900/0924 31003KT P6SM SCT250
     FM091800 28008KT P6SM FEW250=



000
FTUS44 KSJT 082326
TAFSJT
TAF
KSJT 082326Z 0900/0924 28004KT P6SM FEW250
     FM091800 25009KT P6SM SKC=



000
FTUS44 KSJT 082326
TAFABI
TAF
KABI 082326Z 0900/0924 33010G17KT P6SM FEW250
     FM090100 VRB05KT P6SM SKC
     FM091700 31011KT P6SM SKC=



000
FTUS44 KSJT 082326
TAFSJT
TAF
KSJT 082326Z 0900/0924 28004KT P6SM FEW250
     FM091800 25009KT P6SM SKC=



000
FTUS44 KSJT 082326
TAFJCT
TAF
KJCT 082326Z 0900/0924 31003KT P6SM SCT250
     FM091800 28008KT P6SM FEW250=



000
FTUS44 KSJT 081733
TAFABI
TAF
KABI 081733Z 0818/0918 34015G23KT P6SM SCT250
     FM090000 33008KT P6SM FEW250
     FM090400 31005KT P6SM SKC=



000
FTUS44 KSJT 081733
TAFJCT
TAF
KJCT 081733Z 0818/0918 36012G20KT P6SM BKN250
     FM090000 34006KT P6SM BKN250
     FM090300 30003KT P6SM SCT250=



000
FTUS44 KSJT 081733
TAFSJT
TAF
KSJT 081733Z 0818/0918 34011KT P6SM BKN250
      TEMPO 0818/0822 34011G19KT
     FM090000 30004KT P6SM SCT250=



000
FTUS44 KSJT 081120
TAFSJT
TAF
KSJT 081120Z 0812/0912 34010KT P6SM SKC
     FM082300 28005KT P6SM SKC=



000
FTUS44 KSJT 081120
TAFABI
TAF
KABI 081120Z 0812/0912 34008KT P6SM SKC
     FM081600 34015G21KT P6SM SKC
     FM082300 33005KT P6SM SKC=



000
FTUS44 KSJT 081120
TAFJCT
TAF
KJCT 081120Z 0812/0912 02009KT P6SM SKC
     FM081600 36012G18KT P6SM SKC
     FM090000 VRB03KT P6SM SKC=



000
FTUS44 KSJT 081120
TAFJCT
TAF
KJCT 081120Z 0812/0912 02009KT P6SM SKC
     FM081600 36012G18KT P6SM SKC
     FM090000 VRB03KT P6SM SKC=



000
FTUS44 KSJT 081120
TAFSJT
TAF
KSJT 081120Z 0812/0912 34010KT P6SM SKC
     FM082300 28005KT P6SM SKC=



000
FTUS44 KSJT 081120
TAFABI
TAF
KABI 081120Z 0812/0912 34008KT P6SM SKC
     FM081600 34015G21KT P6SM SKC
     FM082300 33005KT P6SM SKC=



000
FTUS44 KSJT 080527
TAFJCT
TAF
KJCT 080527Z 0806/0906 01006KT P6SM SCT250
     FM081700 35011G18KT P6SM FEW250
     FM082300 35007KT P6SM SKC=



000
FTUS44 KSJT 080527
TAFABI
TAF
KABI 080527Z 0806/0906 34010KT P6SM SCT250
     FM081700 34015G22KT P6SM SKC
     FM090000 33007KT P6SM SKC=



000
FTUS44 KSJT 080527
TAFSJT
TAF
KSJT 080527Z 0806/0906 01010KT P6SM SCT250
     FM081700 35011G18KT P6SM SKC
     FM082300 30008KT P6SM SKC=



000
FTUS44 KSJT 072336
TAFSJT
TAF
KSJT 072336Z 0800/0824 36010KT P6SM SCT250
     FM081700 35011G18KT P6SM SKC=



000
FTUS44 KSJT 072336
TAFABI
TAF
KABI 072336Z 0800/0824 35011KT P6SM SCT250
     FM081700 35013G20KT P6SM SKC=



000
FTUS44 KSJT 072336
TAFJCT
TAF
KJCT 072336Z 0800/0824 36008KT P6SM SCT250
     FM081700 36011G18KT P6SM FEW250=



000
FTUS44 KSJT 072336
TAFSJT
TAF
KSJT 072336Z 0800/0824 36010KT P6SM SCT250
     FM081700 35011G18KT P6SM SKC=



000
FTUS44 KSJT 072336
TAFABI
TAF
KABI 072336Z 0800/0824 35011KT P6SM SCT250
     FM081700 35013G20KT P6SM SKC=



000
FTUS44 KSJT 072336
TAFJCT
TAF
KJCT 072336Z 0800/0824 36008KT P6SM SCT250
     FM081700 36011G18KT P6SM FEW250=



    US Dept of Commerce
    National Oceanic and Atmospheric Administration
    National Weather Service
    1325 East West Highway
    Silver Spring, MD 20910
    Page Author: NWS Internet Services Team
Disclaimer
Information Quality
Credits
Glossary
Privacy Policy
Freedom of Information Act (FOIA)
About Us
Career Opportunities